Terminal Aerodrome Forecast
Issued by NWS Grand Rapids, MI

Home | Current Version | Previous Version | Text Only | Print | Product List | Glossary On
Versions: 1 2 3 4 5 6 7 8 9 10 11 12 13 14
941
FTUS43 KGRR 201742
TAFGRR
TAF
KGRR 201742Z 2018/2118 11010G17KT P6SM BKN250
     FM202300 13010KT P6SM BKN200
     FM210400 17011KT P6SM VCSH FEW060 BKN120
     FM210800 18010KT 3SM -RA BR VCTS OVC005CB
     FM211400 21010KT 3/4SM -DZ BR OVC004=

USA.gov is the U.S. government's official web portal to all federal, state and local government web resources and services.